Elrick, Iowa
Current Conditions -  °F | °C
As of 11:35 AM on Saturday 25 Oct 2014 (Local Time) from KMUT Reporting Station
Clear Clear  
Wind Chill: 68°   Ceiling: Unl
Heat Index: 68°   Visibility: 10mi
Dew Point: 43°   Wind: 12mph
Humidity: 40%   Direction: 340°NNW
Pressure: 30.06"   Gusts: NA
Location:  41.1602°N, 91.246°W
Report Text: KMUT 251635Z AUTO 34010KT 10SM CLR 20/06 A3006 RMK AO2
Loading
Personal Weather Stations






























Interactive Weather Map
Tropical Storm Tracking
New forecast layout! Learn more

10-Day Weather Forecast

Advertisements
Track Severe Weather on mobile